createdAt,value
2022-09-18T00:03:46.902Z,96582.00
2022-09-18T00:07:43.846Z,96581.69
2022-09-18T00:11:49.421Z,96565.03
2022-09-18T00:15:57.338Z,96596.06
2022-09-18T00:19:54.463Z,96577.22
2022-09-18T00:23:55.492Z,96595.75
2022-09-18T00:27:52.504Z,96566.56
2022-09-18T00:31:49.603Z,96568.47
2022-09-18T00:35:47.099Z,96598.81
2022-09-18T00:39:44.041Z,96597.25
2022-09-18T00:43:41.899Z,96599.50
2022-09-18T00:47:51.357Z,96607.75
2022-09-18T00:51:52.754Z,96602.34
2022-09-18T00:55:49.758Z,96603.78
2022-09-18T00:59:49.785Z,96604.44
2022-09-18T01:03:46.752Z,96601.44
2022-09-18T01:08:08.815Z,96605.94
2022-09-18T01:12:41.016Z,96625.09
2022-09-18T01:17:19.612Z,96591.84
2022-09-18T01:21:25.090Z,96600.47
2022-09-18T01:25:51.938Z,96617.28
2022-09-18T01:30:06.002Z,96617.66
2022-09-18T01:34:21.038Z,96615.63
2022-09-18T01:38:33.591Z,96625.19
2022-09-18T01:42:34.489Z,96611.09
2022-09-18T01:46:32.946Z,96610.94
2022-09-18T01:50:38.279Z,96616.66
2022-09-18T01:54:43.481Z,96611.94
2022-09-18T01:58:40.752Z,96610.78
2022-09-18T02:02:59.430Z,96616.94
2022-09-18T02:07:24.429Z,96616.34
2022-09-18T02:11:23.820Z,96620.94
2022-09-18T02:15:27.335Z,96621.50
2022-09-18T02:19:46.623Z,96610.06
2022-09-18T02:23:44.526Z,96612.97
2022-09-18T02:27:42.760Z,96606.22
2022-09-18T02:31:40.992Z,96608.03
2022-09-18T02:35:50.459Z,96612.56
2022-09-18T02:40:30.581Z,96616.13
2022-09-18T02:44:53.714Z,96614.09
2022-09-18T02:49:05.693Z,96618.16
2022-09-18T02:53:12.343Z,96606.88
2022-09-18T02:57:24.432Z,96587.72
2022-09-18T03:01:26.849Z,96609.59
2022-09-18T03:05:26.164Z,96603.28
2022-09-18T03:09:27.737Z,96612.22
2022-09-18T03:13:24.778Z,96597.00
2022-09-18T03:17:21.776Z,96598.34
2022-09-18T03:21:18.745Z,96597.41
2022-09-18T03:25:16.563Z,96589.13
2022-09-18T03:29:14.657Z,96605.84
2022-09-18T03:33:13.196Z,96603.25
2022-09-18T03:37:12.600Z,96586.81
2022-09-18T03:41:10.071Z,96595.59
2022-09-18T03:45:12.546Z,96617.03
2022-09-18T03:49:09.681Z,96573.84
2022-09-18T03:53:09.155Z,96601.31
2022-09-18T03:57:17.681Z,96621.75
2022-09-18T04:01:43.892Z,96604.38
2022-09-18T04:06:02.696Z,96603.22
2022-09-18T04:10:19.189Z,96609.16
2022-09-18T04:14:16.154Z,96599.91
2022-09-18T04:18:13.189Z,96602.06
2022-09-18T04:22:10.561Z,96618.34
2022-09-18T04:26:10.465Z,96588.50
2022-09-18T04:30:15.870Z,96608.78
2022-09-18T04:34:16.014Z,96603.78
2022-09-18T04:38:13.746Z,96612.31
2022-09-18T04:42:11.085Z,96608.09
2022-09-18T04:46:09.747Z,96606.69
2022-09-18T04:50:08.970Z,96593.59
2022-09-18T04:54:06.203Z,96597.22
2022-09-18T04:58:07.139Z,96610.03
2022-09-18T05:02:04.414Z,96609.63
2022-09-18T05:06:01.916Z,96604.31
2022-09-18T05:10:01.141Z,96610.44
2022-09-18T05:14:01.009Z,96621.94
2022-09-18T05:18:11.356Z,96623.31
2022-09-18T05:22:08.767Z,96604.66
2022-09-18T05:26:10.077Z,96615.22
2022-09-18T05:30:08.690Z,96601.94
2022-09-18T05:34:25.949Z,96620.47
2022-09-18T05:38:24.509Z,96631.56
2022-09-18T05:42:23.157Z,96615.94
2022-09-18T05:46:20.642Z,96627.69
2022-09-18T05:50:31.817Z,96620.13
2022-09-18T05:54:29.809Z,96619.03
2022-09-18T05:58:28.308Z,96642.53
2022-09-18T06:02:26.734Z,96637.28
2022-09-18T06:06:32.566Z,96633.34
2022-09-18T06:10:30.233Z,96628.69
2022-09-18T06:14:27.334Z,96643.16
2022-09-18T06:18:24.899Z,96635.34
2022-09-18T06:22:24.461Z,96646.41
2022-09-18T06:26:21.606Z,96647.44
2022-09-18T06:30:18.587Z,96653.41
2022-09-18T06:34:15.539Z,96629.22
2022-09-18T06:38:15.646Z,96650.81
2022-09-18T06:42:17.549Z,96654.16
2022-09-18T06:46:31.902Z,96645.97
2022-09-18T06:50:38.100Z,96657.81
2022-09-18T06:54:35.104Z,96640.84
2022-09-18T06:58:32.933Z,96656.69
2022-09-18T07:02:30.181Z,96658.06
2022-09-18T07:06:32.386Z,96658.88
2022-09-18T07:10:29.903Z,96659.38
2022-09-18T07:14:29.685Z,96658.31
2022-09-18T07:18:34.129Z,96646.72
2022-09-18T07:22:31.919Z,96665.16
2022-09-18T07:26:29.019Z,96631.56
2022-09-18T07:30:26.578Z,96670.19
2022-09-18T07:34:25.013Z,96655.47
2022-09-18T07:38:23.690Z,96671.31
2022-09-18T07:42:24.261Z,96649.63
2022-09-18T07:46:23.277Z,96673.75
2022-09-18T07:50:23.478Z,96677.69
2022-09-18T07:54:20.555Z,96663.13
2022-09-18T07:58:30.896Z,96676.34
2022-09-18T08:02:36.263Z,96686.00
2022-09-18T08:06:33.581Z,96687.34
2022-09-18T08:10:51.427Z,96712.53
2022-09-18T08:15:07.923Z,96686.06
2022-09-18T08:19:15.598Z,96696.69
2022-09-18T08:23:20.111Z,96655.63
2022-09-18T08:27:17.182Z,96671.16
2022-09-18T08:31:16.017Z,96677.59
2022-09-18T08:35:13.826Z,96676.38
2022-09-18T08:39:10.878Z,96663.69
2022-09-18T08:43:47.431Z,96687.19
2022-09-18T08:48:06.531Z,96682.09
2022-09-18T08:52:23.412Z,96696.09
2022-09-18T08:56:44.189Z,96697.41
2022-09-18T09:00:55.023Z,96697.09
2022-09-18T09:05:19.368Z,96703.97
2022-09-18T09:10:17.449Z,96691.69
2022-09-18T09:15:03.701Z,96673.09
2022-09-18T09:19:37.569Z,96701.75
2022-09-18T09:24:01.676Z,96705.66
2022-09-18T09:28:43.715Z,96705.59
2022-09-18T09:32:55.696Z,96679.41
2022-09-18T09:37:25.199Z,96694.44
2022-09-18T09:41:58.162Z,96682.38
2022-09-18T09:46:03.155Z,96677.06
2022-09-18T09:50:09.377Z,96702.72
2022-09-18T09:54:11.918Z,96690.81
2022-09-18T09:58:44.425Z,96694.16
2022-09-18T10:03:02.561Z,96678.56
2022-09-18T10:07:23.429Z,96697.13
2022-09-18T10:11:24.261Z,96694.91
2022-09-18T10:15:45.958Z,96682.09
2022-09-18T10:19:49.873Z,96674.56
2022-09-18T10:24:11.753Z,96671.38
2022-09-18T10:28:18.297Z,96691.59
2022-09-18T10:32:43.535Z,96699.34
2022-09-18T10:36:52.409Z,96681.53
2022-09-18T10:40:49.481Z,96667.53
2022-09-18T10:45:01.442Z,96685.47
2022-09-18T10:49:20.656Z,96686.97
2022-09-18T10:53:42.452Z,96678.91
2022-09-18T10:57:54.867Z,96680.09
2022-09-18T11:01:59.297Z,96650.78
2022-09-18T11:06:04.788Z,96665.75
2022-09-18T11:10:08.800Z,96655.91
2022-09-18T11:14:26.168Z,96656.56
2022-09-18T11:18:32.031Z,96673.31
2022-09-18T11:22:44.695Z,96673.41
2022-09-18T11:27:21.884Z,96643.72
2022-09-18T11:31:21.985Z,96650.94
2022-09-18T11:35:29.756Z,96640.88
2022-09-18T11:39:36.581Z,96637.38
2022-09-18T11:43:39.752Z,96639.16
2022-09-18T11:47:47.441Z,96637.63
2022-09-18T11:51:59.611Z,96644.75
2022-09-18T11:56:39.587Z,96636.19
2022-09-18T12:00:51.420Z,96620.03
2022-09-18T12:04:59.005Z,96622.88
2022-09-18T12:09:13.638Z,96605.72
2022-09-18T12:13:45.392Z,96627.94
2022-09-18T12:18:00.742Z,96612.53
2022-09-18T12:22:09.841Z,96627.34
2022-09-18T12:26:37.563Z,96583.22
2022-09-18T12:31:10.671Z,96619.19
2022-09-18T12:35:27.330Z,96602.22
2022-09-18T12:40:00.018Z,96609.97
2022-09-18T12:45:14.253Z,96613.84
2022-09-18T12:49:42.835Z,96616.63
2022-09-18T12:54:13.605Z,96607.50
2022-09-18T12:58:52.395Z,96599.81
2022-09-18T13:03:11.881Z,96609.88
2022-09-18T13:07:37.471Z,96593.19
2022-09-18T13:11:46.421Z,96597.56
2022-09-18T13:15:52.212Z,96602.72
2022-09-18T13:20:30.994Z,96592.78
2022-09-18T13:24:35.696Z,96589.59
2022-09-18T13:28:33.553Z,96583.34
2022-09-18T13:32:37.386Z,96581.34
2022-09-18T13:36:46.758Z,96586.53
2022-09-18T13:40:58.201Z,96570.22
2022-09-18T13:45:21.439Z,96564.91
2022-09-18T13:49:56.258Z,96559.13
2022-09-18T13:54:25.582Z,96566.84
2022-09-18T13:58:31.903Z,96571.22
2022-09-18T14:02:40.324Z,96576.81
2022-09-18T14:06:37.200Z,96571.94
2022-09-18T14:11:05.440Z,96570.00
2022-09-18T14:15:25.150Z,96561.28
2022-09-18T14:19:32.956Z,96564.19
2022-09-18T14:23:36.046Z,96555.25
2022-09-18T14:28:03.344Z,96543.28
2022-09-18T14:32:02.649Z,96553.69
2022-09-18T14:36:07.315Z,96538.16
2022-09-18T14:40:21.026Z,96540.34
2022-09-18T14:44:18.243Z,96550.59
2022-09-18T14:48:30.606Z,96548.84
2022-09-18T14:52:47.950Z,96536.34
2022-09-18T14:56:45.008Z,96518.78
2022-09-18T15:00:44.029Z,96552.69
2022-09-18T15:04:42.570Z,96540.19
2022-09-18T15:08:43.040Z,96542.00
2022-09-18T15:12:43.557Z,96525.38
2022-09-18T15:16:40.614Z,96545.63
2022-09-18T15:20:37.725Z,96541.13
2022-09-18T15:24:34.752Z,96555.47
2022-09-18T15:28:36.277Z,96542.94
2022-09-18T15:32:44.412Z,96554.41
2022-09-18T15:36:41.702Z,96530.47
2022-09-18T15:40:39.593Z,96539.78
2022-09-18T15:44:39.318Z,96555.59
2022-09-18T15:48:38.993Z,96548.16
2022-09-18T15:52:43.169Z,96540.16
2022-09-18T15:56:50.962Z,96539.19
2022-09-18T16:00:58.635Z,96560.38
2022-09-18T16:04:56.440Z,96545.31
2022-09-18T16:08:57.507Z,96506.59
2022-09-18T16:12:54.545Z,96531.53
2022-09-18T16:16:51.686Z,96532.63
2022-09-18T16:20:51.821Z,96543.16
2022-09-18T16:24:49.735Z,96535.59
2022-09-18T16:28:58.644Z,96537.38
2022-09-18T16:33:23.660Z,96528.59
2022-09-18T16:37:22.973Z,96517.59
2022-09-18T16:41:20.326Z,96518.66
2022-09-18T16:45:18.930Z,96531.00
2022-09-18T16:49:32.609Z,96522.78
2022-09-18T16:53:29.608Z,96539.66
2022-09-18T16:57:27.780Z,96526.81
2022-09-18T17:01:25.469Z,96506.97
2022-09-18T17:05:24.731Z,96497.41
2022-09-18T17:09:23.905Z,96494.75
2022-09-18T17:13:21.267Z,96505.28
2022-09-18T17:17:18.790Z,96509.78
2022-09-18T17:21:16.198Z,96504.25
2022-09-18T17:25:14.477Z,96499.56
2022-09-18T17:29:11.762Z,96478.59
2022-09-18T17:33:09.657Z,96502.25
2022-09-18T17:37:06.633Z,96504.06
2022-09-18T17:41:08.262Z,96505.97
2022-09-18T17:45:06.296Z,96502.75
2022-09-18T17:49:03.447Z,96491.47
2022-09-18T17:53:00.684Z,96524.00
2022-09-18T17:57:00.152Z,96509.88
2022-09-18T18:00:59.513Z,96522.81
2022-09-18T18:04:56.818Z,96480.19
2022-09-18T18:08:55.538Z,96517.34
2022-09-18T18:12:52.732Z,96501.09
2022-09-18T18:16:52.585Z,96514.06
2022-09-18T18:20:51.960Z,96508.38
2022-09-18T18:24:49.706Z,96520.38
2022-09-18T18:28:46.653Z,96518.06
2022-09-18T18:32:43.618Z,96500.03
2022-09-18T18:36:42.914Z,96504.44
2022-09-18T18:40:40.504Z,96489.03
2022-09-18T18:44:39.533Z,96517.97
2022-09-18T18:48:37.668Z,96508.19
2022-09-18T18:52:34.627Z,96514.44
2022-09-18T18:56:37.592Z,96518.25
2022-09-18T19:00:37.520Z,96504.97
2022-09-18T19:04:34.785Z,96503.13
2022-09-18T19:08:32.164Z,96497.34
2022-09-18T19:12:29.107Z,96494.81
2022-09-18T19:16:29.165Z,96510.47
2022-09-18T19:20:26.498Z,96509.44
2022-09-18T19:24:23.541Z,96492.28
2022-09-18T19:28:20.492Z,96482.75
2022-09-18T19:32:18.953Z,96502.25
2022-09-18T19:36:15.953Z,96492.03
2022-09-18T19:40:14.096Z,96501.78
2022-09-18T19:44:37.359Z,96508.81
2022-09-18T19:48:34.760Z,96480.22
2022-09-18T19:52:32.302Z,96496.97
2022-09-18T19:56:42.510Z,96496.25
2022-09-18T20:00:42.165Z,96496.84
2022-09-18T20:04:40.921Z,96477.81
2022-09-18T20:08:38.106Z,96468.31
2022-09-18T20:12:39.669Z,96480.03
2022-09-18T20:16:39.172Z,96474.44
2022-09-18T20:20:37.600Z,96467.44
2022-09-18T20:24:34.586Z,96473.56
2022-09-18T20:28:33.775Z,96489.41
2022-09-18T20:32:31.033Z,96504.16
2022-09-18T20:36:28.745Z,96492.91
2022-09-18T20:40:25.867Z,96515.09
2022-09-18T20:44:22.875Z,96519.38
2022-09-18T20:48:27.252Z,96507.59
2022-09-18T20:52:26.698Z,96518.47
2022-09-18T20:56:26.992Z,96521.81
2022-09-18T21:00:24.523Z,96495.75
2022-09-18T21:04:21.559Z,96502.28
2022-09-18T21:08:18.538Z,96534.75
2022-09-18T21:12:15.849Z,96522.53
2022-09-18T21:16:14.856Z,96536.97
2022-09-18T21:20:13.570Z,96506.66
2022-09-18T21:24:11.015Z,96543.91
2022-09-18T21:28:08.217Z,96532.69
2022-09-18T21:32:08.773Z,96530.63
2022-09-18T21:36:06.851Z,96540.78
2022-09-18T21:40:04.337Z,96520.25
2022-09-18T21:44:04.172Z,96543.75
2022-09-18T21:48:01.166Z,96521.03
2022-09-18T21:52:02.778Z,96537.72
2022-09-18T21:56:06.817Z,96534.44
2022-09-18T22:00:08.986Z,96511.50
2022-09-18T22:04:09.959Z,96538.19
2022-09-18T22:08:08.332Z,96534.47
2022-09-18T22:12:07.827Z,96535.50
2022-09-18T22:16:05.798Z,96512.59
2022-09-18T22:20:03.090Z,96524.31
2022-09-18T22:24:10.217Z,96535.53
2022-09-18T22:28:07.397Z,96498.66
2022-09-18T22:32:04.883Z,96537.56
2022-09-18T22:36:06.899Z,96510.72
2022-09-18T22:40:04.511Z,96512.59
2022-09-18T22:44:01.804Z,96467.19
2022-09-18T22:47:58.793Z,96509.31
2022-09-18T22:51:55.759Z,96505.56
2022-09-18T22:55:52.813Z,96460.81
2022-09-18T22:59:49.806Z,96493.81
2022-09-18T23:03:50.518Z,96464.00
2022-09-18T23:07:47.597Z,96499.19
2022-09-18T23:11:48.231Z,96513.38
2022-09-18T23:15:45.145Z,96481.09
2022-09-18T23:19:42.186Z,96524.88
2022-09-18T23:23:48.505Z,96510.44
2022-09-18T23:27:45.498Z,96489.63
2022-09-18T23:31:45.649Z,96506.75
2022-09-18T23:35:42.989Z,96519.56
2022-09-18T23:39:40.003Z,96499.25
2022-09-18T23:43:38.084Z,96525.41
2022-09-18T23:47:37.418Z,96531.81
2022-09-18T23:51:38.456Z,96525.94
2022-09-18T23:55:35.393Z,96512.59
2022-09-18T23:59:34.875Z,96510.50
